Meadowbrook, Indiana
Current Conditions -  °F | °C
As of 3:54 PM on Wednesday 26 Nov 2014 (Local Time) from KFWA Reporting Station
Overcast Overcast  
Wind Chill: 29°   Ceiling: 1800
Heat Index: 29°   Visibility: 10mi
Dew Point: 21°   Wind: 3mph
Humidity: 72%   Direction: 60°ENE
Pressure: 30.1"   Gusts: NA
Location:  41.0925°N, 84.9712°W
Report Text: KFWA 262054Z 06003KT 10SM OVC018 M02/M06 A3010 RMK AO2 SLP202 T10171061 58003
Loading
Personal Weather Stations






























Interactive Weather Map New forecast layout! Learn more

10-Day Weather Forecast

Advertisements
Track Severe Weather on mobile